KSPI METAR and TAF | Updated Today

KSPI METAR

Abraham Lincoln Capital Airport

Observation time: 59 min. ago

KSPI 261352Z 35011G18KT 10SM FEW016 SCT035 OVC075 23/18 A3013 RMK AO2 SLP197 T02280183

Need help? Read our tutorial on how to read METARs or read the parsed version below.

Abraham Lincoln Capital Airport (KSPI) METAR

  • Weather conditions on Sun, 26 Jun 2022 13:52:00 +0000 (59 min. ago):
  • Present conditions: Dry
  • Clouds: A few at 488 meters; scattered at 1067 meters; overcast sky at 2286 meters
  • Visibility: 16093 meters
  • Wind: 350 degrees at 11 knots
  • Temperature: 23 celsius
  • Dew point: 18 celsius
  • Pressure: 30.13 inHg
  • Remarks: AO2 SLP197 T02280183


Useful to know...

KSPI TAF

Abraham Lincoln Capital Airport

KSPI 261230Z 2613/2712 32009KT 6SM BR SCT005 BKN050 FM261400 32010G20KT P6SM SCT250 FM262300 32009KT P6SM SCT250
Observation time: 2:21 hr. ago
Need help? Read our tutorial on how to read TAFs or read the parsed version below.

Parsed version of TAF for Abraham Lincoln Capital Airport (KSPI)

  • From 26 June at 13:00 UTC, to day 27 of the month at 12:00 UTC
  • Clouds: Scattered at 152 meters; broken sky at 1524 meters
  • Visibility: 9656 meters
  • Wind: 320 degrees at 9
  • Other: Mist
  • From day 26 of the month at 14:00 UTC
  • Clouds: Scattered at 7620 meters
  • Wind: 320 degrees at 10
  • From day 26 of the month at 23:00 UTC
  • Clouds: Scattered at 7620 meters
  • Wind: 320 degrees at 9